Time;durP1;ratioP1;P1;durP2;ratioP2;P2;SDS_P1;SDS_P2;PMS_P1;PMS_P2;Temp;Humidity;BMP_temperature;BMP_pressure;BME280_temperature;BME280_humidity;BME280_pressure;Samples;Min_cycle;Max_cycle;Signal;HPM_P1;HPM_P2
2023/06/28 00:01:43;;;;;;;6.85;1.98;;;;;;;21.86;38.55;98832.78;5090798;28;20030;-45
2023/06/28 00:04:09;;;;;;;11.80;2.83;;;;;;;21.93;38.77;98831.41;5090744;28;20020;-45
2023/06/28 00:06:35;;;;;;;7.50;2.15;;;;;;;22.03;38.37;98835.13;5091954;28;20028;-45
2023/06/28 00:09:00;;;;;;;7.75;2.10;;;;;;;21.90;38.01;98833.81;5092026;28;20020;-45
2023/06/28 00:11:28;;;;;;;15.10;2.20;;;;;;;21.53;38.89;98835.75;5092244;28;20436;-45
2023/06/28 00:13:54;;;;;;;14.40;2.80;;;;;;;21.47;39.18;98833.34;5091851;28;20490;-45
2023/06/28 00:16:20;;;;;;;6.00;1.90;;;;;;;21.42;38.98;98833.31;5091895;28;20059;-45
2023/06/28 00:18:46;;;;;;;8.38;2.05;;;;;;;21.22;39.59;98826.91;5090563;28;20035;-45
2023/06/28 00:21:13;;;;;;;9.27;2.90;;;;;;;21.22;39.84;98824.25;5091838;28;20394;-45
2023/06/28 00:23:39;;;;;;;9.75;3.00;;;;;;;21.29;39.49;98830.13;5091855;28;20020;-45
2023/06/28 00:26:05;;;;;;;5.63;1.90;;;;;;;21.25;39.46;98820.22;5077297;28;20032;-45
2023/06/28 00:28:30;;;;;;;4.88;2.08;;;;;;;21.13;39.72;98823.19;5094781;28;20214;-45
2023/06/28 00:30:56;;;;;;;10.13;2.28;;;;;;;21.09;39.90;98812.25;5095528;28;20044;-45
2023/06/28 00:33:22;;;;;;;4.97;2.75;;;;;;;21.07;39.85;98810.91;5094874;28;20089;-45
2023/06/28 00:35:48;;;;;;;11.85;2.65;;;;;;;21.03;40.35;98810.63;5094579;28;20028;-45
2023/06/28 00:38:14;;;;;;;7.95;2.45;;;;;;;21.07;40.23;98809.03;5094547;28;20024;-45
2023/06/28 00:40:39;;;;;;;12.35;2.72;;;;;;;21.08;40.42;98807.16;5095835;28;20379;-45
2023/06/28 00:43:05;;;;;;;20.67;3.08;;;;;;;21.10;40.45;98805.81;5094437;28;20031;-45
2023/06/28 00:45:31;;;;;;;9.65;2.45;;;;;;;21.18;40.29;98803.69;5094410;28;20032;-45
2023/06/28 00:47:56;;;;;;;8.18;2.53;;;;;;;21.31;40.45;98798.63;5095689;28;20081;-45
2023/06/28 00:50:23;;;;;;;16.92;3.65;;;;;;;21.53;40.52;98797.53;5094285;28;20024;-45
2023/06/28 00:52:49;;;;;;;11.05;2.28;;;;;;;21.62;40.36;98793.28;5094331;28;20122;-45
2023/06/28 00:55:15;;;;;;;7.75;2.10;;;;;;;21.60;39.92;98799.97;5077429;28;20115;-45
2023/06/28 00:57:40;;;;;;;9.93;2.33;;;;;;;21.35;39.76;98798.91;5095515;28;20154;-45
2023/06/28 01:00:11;;;;;;;8.10;2.50;;;;;;;21.00;40.02;98792.47;5094111;28;20024;-45
2023/06/28 01:02:41;;;;;;;14.65;2.30;;;;;;;20.63;40.57;98803.38;5095478;28;20493;-45
2023/06/28 01:05:09;;;;;;;11.15;2.88;;;;;;;20.44;41.43;98801.13;5095631;28;20493;-45
2023/06/28 01:07:36;;;;;;;8.23;2.80;;;;;;;20.39;41.56;98797.66;5095337;28;20110;-45
2023/06/28 01:10:03;;;;;;;10.38;2.92;;;;;;;20.31;41.51;98790.97;5077072;28;20024;-45
2023/06/28 01:12:29;;;;;;;7.03;2.17;;;;;;;20.20;41.58;98792.78;5093987;28;20028;-45
2023/06/28 01:14:55;;;;;;;16.63;3.10;;;;;;;20.14;41.80;98789.31;5095064;28;20039;-45
2023/06/28 01:17:21;;;;;;;11.55;3.15;;;;;;;20.14;42.03;98783.16;5095203;28;20020;-45
2023/06/28 01:19:47;;;;;;;19.67;3.45;;;;;;;20.21;42.36;98774.94;5093808;28;20027;-45
2023/06/28 01:22:13;;;;;;;27.35;3.58;;;;;;;20.32;42.28;98779.22;5093711;28;20020;-45
2023/06/28 01:24:40;;;;;;;6.15;2.15;;;;;;;20.33;42.50;98773.66;5095035;28;20587;-45
2023/06/28 01:27:10;;;;;;;5.45;1.88;;;;;;;20.38;42.61;98775.53;5094944;28;20020;-45
2023/06/28 01:29:36;;;;;;;9.80;2.30;;;;;;;20.44;42.32;98781.69;5093606;28;20020;-45
2023/06/28 01:32:03;;;;;;;10.82;2.60;;;;;;;20.44;42.46;98774.47;5094690;28;20123;-45
2023/06/28 01:34:29;;;;;;;15.27;3.35;;;;;;;20.51;42.65;98775.03;5094990;28;20198;-45
2023/06/28 01:36:58;;;;;;;12.52;2.75;;;;;;;20.54;42.57;98771.03;5093018;28;20166;-45
2023/06/28 01:39:24;;;;;;;13.48;3.05;;;;;;;20.48;42.77;98775.56;5094755;28;20028;-45
2023/06/28 01:41:52;;;;;;;16.88;3.05;;;;;;;20.39;42.94;98782.47;5093384;28;20604;-45
2023/06/28 01:44:18;;;;;;;15.55;2.83;;;;;;;20.36;43.17;98785.66;5094585;28;20059;-45
2023/06/28 01:46:44;;;;;;;13.77;2.78;;;;;;;20.35;43.49;98778.72;5093391;28;20440;-45
2023/06/28 01:49:10;;;;;;;25.25;7.53;;;;;;;20.37;43.24;98775.81;5093219;28;20023;-45
2023/06/28 01:51:36;;;;;;;16.77;5.63;;;;;;;20.27;43.21;98779.22;5094493;28;20489;-45
2023/06/28 01:54:03;;;;;;;9.38;3.55;;;;;;;20.14;43.45;98780.50;5093034;28;20397;-45
2023/06/28 01:56:29;;;;;;;8.70;2.40;;;;;;;20.02;43.65;98783.41;5093396;28;20036;-45
2023/06/28 01:58:55;;;;;;;13.65;2.60;;;;;;;19.88;43.93;98766.25;5093015;28;20394;-45
2023/06/28 02:01:22;;;;;;;9.68;2.47;;;;;;;19.73;44.06;98753.69;5092951;28;20020;-45
2023/06/28 02:03:47;;;;;;;17.20;4.35;;;;;;;19.52;44.54;98761.53;5092982;28;20344;-45
2023/06/28 02:06:14;;;;;;;13.18;3.00;;;;;;;19.47;45.05;98761.50;5092866;28;20024;-45
2023/06/28 02:08:40;;;;;;;9.07;2.70;;;;;;;19.52;45.12;98771.38;5076120;28;20017;-45
2023/06/28 02:11:06;;;;;;;7.88;3.03;;;;;;;19.51;45.24;98764.44;5092760;28;20028;-45
2023/06/28 02:13:31;;;;;;;13.05;2.72;;;;;;;19.47;45.30;98766.00;5094057;28;20027;-45
2023/06/28 02:15:57;;;;;;;10.02;2.80;;;;;;;19.44;45.46;98769.22;5093973;28;20112;-45
2023/06/28 02:18:25;;;;;;;24.70;4.00;;;;;;;19.40;45.70;98765.41;5094008;28;20443;-45
2023/06/28 02:20:51;;;;;;;14.07;2.28;;;;;;;19.34;45.76;98770.72;5094151;28;20027;-45
2023/06/28 02:23:18;;;;;;;6.78;2.70;;;;;;;19.19;46.43;98767.94;5093820;28;20032;-45
2023/06/28 02:25:43;;;;;;;12.63;3.00;;;;;;;19.03;46.62;98768.88;5092842;28;20024;-45
2023/06/28 02:28:09;;;;;;;11.60;2.53;;;;;;;19.00;47.10;98770.19;5093783;28;20551;-45
2023/06/28 02:30:34;;;;;;;9.25;2.50;;;;;;;19.01;46.98;98757.69;5093248;28;20036;-45
2023/06/28 02:33:00;;;;;;;9.68;3.28;;;;;;;18.98;47.24;98752.91;5092343;28;20028;-45
2023/06/28 02:35:26;;;;;;;10.85;2.40;;;;;;;18.95;47.41;98749.69;5093641;28;20012;-45
2023/06/28 02:37:51;;;;;;;13.07;2.80;;;;;;;18.91;47.48;98761.88;5092213;28;20108;-45
2023/06/28 02:40:17;;;;;;;12.55;2.70;;;;;;;18.86;47.53;98761.03;5092219;28;20032;-45
2023/06/28 02:42:43;;;;;;;28.77;4.18;;;;;;;18.81;47.71;98756.44;5092197;28;20028;-45
2023/06/28 02:45:09;;;;;;;12.05;2.70;;;;;;;18.76;47.97;98762.50;5093414;28;20393;-45
2023/06/28 02:47:34;;;;;;;9.43;2.88;;;;;;;18.87;48.11;98760.75;5092583;28;20648;-45
2023/06/28 02:50:05;;;;;;;16.15;3.28;;;;;;;18.99;48.04;98746.50;5092075;28;20100;-45
2023/06/28 02:52:31;;;;;;;13.35;2.53;;;;;;;19.00;48.04;98740.94;5093395;28;20030;-45
2023/06/28 02:54:57;;;;;;;14.20;3.10;;;;;;;19.01;48.26;98741.72;5091869;28;20027;-45
2023/06/28 02:57:22;;;;;;;20.85;4.63;;;;;;;19.03;48.18;98739.63;5091908;28;20028;-45
2023/06/28 02:59:48;;;;;;;15.43;3.08;;;;;;;19.12;48.32;98744.22;5093221;28;20363;-45
2023/06/28 03:02:15;;;;;;;10.98;2.63;;;;;;;19.15;48.21;98743.69;5093180;28;20058;-45
2023/06/28 03:04:41;;;;;;;13.45;2.83;;;;;;;19.12;48.26;98741.56;5093183;28;20035;-45
2023/06/28 03:07:12;;;;;;;17.52;3.08;;;;;;;19.13;48.61;98735.16;5091804;28;20028;-45
2023/06/28 03:09:38;;;;;;;14.82;3.05;;;;;;;19.16;48.42;98740.00;5091813;28;20028;-45
2023/06/28 03:12:04;;;;;;;17.00;4.03;;;;;;;19.15;48.71;98738.38;5092974;28;20031;-45
2023/06/28 03:14:29;;;;;;;19.75;4.47;;;;;;;19.19;48.88;98738.69;5091546;28;20016;-45
2023/06/28 03:16:55;;;;;;;16.88;3.85;;;;;;;19.21;48.87;98738.44;5092910;28;20028;-45
2023/06/28 03:19:21;;;;;;;17.08;3.85;;;;;;;19.21;48.91;98741.88;5092808;28;20027;-45
2023/06/28 03:21:46;;;;;;;10.60;2.20;;;;;;;19.29;48.84;98738.75;5092752;28;20104;-45
2023/06/28 03:24:12;;;;;;;20.48;3.17;;;;;;;19.42;48.73;98736.69;5091432;28;20071;-45
2023/06/28 03:26:38;;;;;;;11.10;2.80;;;;;;;19.47;48.54;98740.19;5092669;28;20026;-45
2023/06/28 03:29:03;;;;;;;26.33;4.60;;;;;;;19.58;48.34;98741.06;5091342;28;20032;-45
2023/06/28 03:31:31;;;;;;;17.13;4.30;;;;;;;19.65;48.29;98744.28;5092362;28;20448;-45
2023/06/28 03:33:57;;;;;;;12.15;2.92;;;;;;;19.67;48.15;98749.38;5092468;28;20494;-45
2023/06/28 03:36:27;;;;;;;14.65;3.95;;;;;;;19.60;48.22;98740.78;5074523;28;20456;-45
2023/06/28 03:38:53;;;;;;;7.65;2.60;;;;;;;19.45;48.37;98747.63;5092367;28;20020;-45
2023/06/28 03:41:19;;;;;;;17.00;3.33;;;;;;;19.27;48.76;98740.06;5092428;28;20117;-45
2023/06/28 03:43:44;;;;;;;14.15;2.75;;;;;;;19.16;49.03;98736.53;5091131;28;20041;-45
2023/06/28 03:46:11;;;;;;;8.93;2.67;;;;;;;19.06;49.16;98741.78;5092353;28;20024;-45
2023/06/28 03:48:36;;;;;;;20.48;5.93;;;;;;;19.08;49.57;98743.13;5091048;28;20026;-45
2023/06/28 03:51:02;;;;;;;37.35;7.32;;;;;;;19.28;49.70;98742.47;5074108;28;20036;-45
2023/06/28 03:53:28;;;;;;;8.05;2.80;;;;;;;19.63;49.50;98735.75;5090816;28;20562;-45
2023/06/28 03:55:54;;;;;;;22.67;3.47;;;;;;;19.79;48.45;98733.22;5090887;28;20031;-45
2023/06/28 03:58:20;;;;;;;11.95;3.47;;;;;;;19.82;48.20;98732.69;5090749;28;20028;-45
2023/06/28 04:00:45;;;;;;;20.52;3.33;;;;;;;19.84;48.55;98736.72;5090794;28;20386;-45
2023/06/28 04:03:11;;;;;;;22.60;4.00;;;;;;;19.97;48.22;98743.41;5090841;28;20486;-45
2023/06/28 04:05:37;;;;;;;11.63;3.58;;;;;;;19.95;48.06;98733.00;5090744;28;20501;-45
2023/06/28 04:08:02;;;;;;;16.10;3.00;;;;;;;19.97;48.26;98731.97;5090671;28;20020;-45
2023/06/28 04:10:28;;;;;;;10.50;3.25;;;;;;;20.09;47.94;98727.22;5091993;28;20089;-45
2023/06/28 04:12:54;;;;;;;21.17;3.88;;;;;;;20.05;47.81;98726.94;5090638;28;20038;-45
2023/06/28 04:15:20;;;;;;;10.27;3.33;;;;;;;19.99;47.61;98727.19;5090532;28;20482;-45
2023/06/28 04:17:46;;;;;;;12.00;3.15;;;;;;;19.85;47.84;98724.19;5090647;28;20027;-45
2023/06/28 04:20:12;;;;;;;7.60;2.42;;;;;;;19.82;48.04;98720.19;5090566;28;20020;-45
2023/06/28 04:22:37;;;;;;;12.55;3.42;;;;;;;19.76;48.14;98721.22;5090553;28;20023;-45
2023/06/28 04:25:03;;;;;;;12.05;2.90;;;;;;;19.77;48.22;98720.16;5090500;28;20405;-45
2023/06/28 04:27:29;;;;;;;5.22;2.33;;;;;;;19.92;48.14;98716.75;5091795;28;20401;-45
2023/06/28 04:29:55;;;;;;;16.40;2.88;;;;;;;20.14;47.61;98717.38;5090503;28;20032;-45
2023/06/28 04:32:25;;;;;;;22.05;2.90;;;;;;;20.27;47.10;98709.94;5073400;28;20083;-45
2023/06/28 04:34:55;;;;;;;7.82;2.88;;;;;;;20.34;46.68;98716.63;5074152;28;20036;-45
2023/06/28 04:37:21;;;;;;;10.70;3.03;;;;;;;20.47;46.53;98714.50;5090505;28;20044;-45
2023/06/28 04:39:46;;;;;;;26.20;18.33;;;;;;;20.73;46.62;98712.72;5090374;28;20024;-45
2023/06/28 04:42:15;;;;;;;10.20;3.33;;;;;;;20.98;45.70;98714.56;5090377;28;20024;-45
2023/06/28 04:44:43;;;;;;;14.07;3.83;;;;;;;21.17;45.37;98712.16;5091683;28;20455;-45
2023/06/28 04:47:15;;;;;;;16.27;3.05;;;;;;;21.41;44.61;98723.06;5090345;28;20535;-45
2023/06/28 04:49:48;;;;;;;39.80;4.95;;;;;;;21.69;43.73;98704.84;5091566;28;20117;-45
2023/06/28 04:52:19;;;;;;;13.98;3.55;;;;;;;21.87;43.10;98716.78;5090272;28;20020;-45
2023/06/28 04:54:45;;;;;;;22.50;3.90;;;;;;;22.08;42.51;98715.63;5090165;28;20459;-45
2023/06/28 04:57:13;;;;;;;26.70;3.97;;;;;;;22.39;42.16;98710.13;5091577;28;20071;-45
2023/06/28 04:59:40;;;;;;;24.15;2.92;;;;;;;22.68;41.71;98720.91;5091574;28;20017;-45
2023/06/28 05:02:05;;;;;;;27.38;3.97;;;;;;;23.00;40.89;98718.78;5090202;28;20032;-45
2023/06/28 05:04:32;;;;;;;12.85;3.25;;;;;;;23.31;40.31;98722.00;5090237;28;20140;-45
2023/06/28 05:07:03;;;;;;;20.25;3.92;;;;;;;23.66;39.66;98726.22;5090121;28;20493;-45
2023/06/28 05:09:28;;;;;;;42.10;5.88;;;;;;;23.99;38.96;98718.34;5091458;28;20031;-45
2023/06/28 05:11:54;;;;;;;24.42;4.00;;;;;;;24.43;38.20;98716.41;5092983;28;20046;-45
2023/06/28 05:14:20;;;;;;;40.83;5.05;;;;;;;24.82;37.26;98717.97;5093922;28;20020;-46
2023/06/28 05:16:45;;;;;;;35.75;4.85;;;;;;;25.20;37.02;98720.56;5093817;28;20383;-45
2023/06/28 05:19:11;;;;;;;56.90;6.50;;;;;;;25.54;36.22;98717.53;5095412;28;20501;-45
2023/06/28 05:21:36;;;;;;;38.03;5.13;;;;;;;25.79;35.51;98718.91;5093850;28;20570;-45
2023/06/28 05:24:02;;;;;;;117.70;15.20;;;;;;;25.89;35.39;98721.41;5095034;28;20024;-45
2023/06/28 05:26:29;;;;;;;89.78;10.90;;;;;;;26.05;34.74;98719.22;5094969;28;20024;-45
2023/06/28 05:28:55;;;;;;;108.07;13.60;;;;;;;26.23;34.61;98719.41;5094962;28;20088;-46
2023/06/28 05:31:21;;;;;;;31.95;4.55;;;;;;;26.51;34.20;98718.19;5076488;28;20048;-46
2023/06/28 05:33:46;;;;;;;17.95;2.80;;;;;;;26.60;33.50;98730.97;5093505;28;20103;-46
2023/06/28 05:36:12;;;;;;;19.33;5.82;;;;;;;26.45;34.16;98719.41;5093523;28;20118;-45
2023/06/28 05:38:38;;;;;;;24.98;3.92;;;;;;;26.68;33.65;98725.66;5094787;28;20054;-46
2023/06/28 05:41:16;;;;;;;16.70;3.13;;;;;;;27.25;33.08;98725.06;5093412;28;20077;-45
2023/06/28 05:43:44;;;;;;;20.02;3.70;;;;;;;27.80;31.75;98718.44;5093575;28;20024;-45
2023/06/28 05:46:10;;;;;;;19.50;2.50;;;;;;;28.39;31.05;98726.22;5093334;28;20031;-45
2023/06/28 05:48:36;;;;;;;9.13;2.65;;;;;;;28.86;30.12;98723.66;5093241;28;20024;-45
2023/06/28 05:51:02;;;;;;;13.70;2.65;;;;;;;29.41;29.26;98724.78;5094522;28;20023;-46
2023/06/28 05:53:29;;;;;;;12.93;2.40;;;;;;;29.85;28.79;98721.91;5094388;28;20028;-45
2023/06/28 05:55:55;;;;;;;12.30;2.90;;;;;;;30.13;28.16;98727.63;5094687;28;20030;-45
2023/06/28 05:58:21;;;;;;;6.97;2.22;;;;;;;30.57;27.52;98727.31;5093066;28;20035;-45
2023/06/28 06:00:47;;;;;;;9.50;2.33;;;;;;;30.96;26.94;98726.00;5093025;28;20036;-45
2023/06/28 06:03:13;;;;;;;12.88;2.40;;;;;;;31.45;26.05;98725.31;5092992;28;20080;-45
2023/06/28 06:05:39;;;;;;;31.35;5.85;;;;;;;32.14;25.55;98717.38;5094189;28;20016;-46
2023/06/28 06:08:05;;;;;;;44.88;5.55;;;;;;;32.82;24.98;98720.09;5092916;28;20024;-46
2023/06/28 06:10:31;;;;;;;37.58;4.00;;;;;;;33.65;24.24;98716.75;5094149;28;20395;-46
2023/06/28 06:12:57;;;;;;;153.82;12.38;;;;;;;34.21;23.44;98711.00;5094080;28;20478;-46
2023/06/28 06:15:23;;;;;;;25.95;4.50;;;;;;;34.68;22.59;98717.41;5075834;28;20073;-46
2023/06/28 06:17:50;;;;;;;17.70;3.13;;;;;;;34.79;22.29;98706.69;5092679;28;20016;-46
2023/06/28 06:20:16;;;;;;;33.70;5.45;;;;;;;34.94;22.41;98721.38;5092660;28;20456;-46
2023/06/28 06:22:43;;;;;;;36.20;4.50;;;;;;;35.25;22.01;98716.84;5091321;28;20020;-46
2023/06/28 06:25:09;;;;;;;13.60;3.60;;;;;;;35.58;21.50;98716.22;5093856;28;20099;-46
2023/06/28 06:27:35;;;;;;;27.17;4.75;;;;;;;36.03;20.85;98716.47;5092452;28;20541;-46
2023/06/28 06:30:01;;;;;;;25.45;4.43;;;;;;;36.47;20.73;98711.19;5075755;28;20027;-46
2023/06/28 06:32:27;;;;;;;16.45;3.50;;;;;;;36.46;20.34;98719.75;5092190;28;20536;-46
2023/06/28 06:34:53;;;;;;;21.20;3.30;;;;;;;36.43;20.64;98723.25;5093600;28;20020;-46
2023/06/28 06:37:20;;;;;;;22.30;3.53;;;;;;;36.49;20.21;98727.22;5093611;28;20034;-46
2023/06/28 06:39:46;;;;;;;14.82;3.10;;;;;;;36.53;20.25;98717.13;5092258;28;20028;-46
2023/06/28 06:42:11;;;;;;;13.30;3.15;;;;;;;36.34;20.36;98727.06;5092246;28;20028;-46
2023/06/28 06:44:37;;;;;;;19.13;3.63;;;;;;;36.26;20.48;98719.94;5093468;28;20028;-46
2023/06/28 06:47:03;;;;;;;20.25;3.63;;;;;;;35.99;20.78;98725.41;5092137;28;20105;-46
2023/06/28 06:49:29;;;;;;;43.58;4.63;;;;;;;36.18;20.81;98720.97;5092106;28;20058;-46
2023/06/28 06:51:55;;;;;;;12.30;2.78;;;;;;;36.08;20.67;98719.69;5093368;28;20056;-46
2023/06/28 06:54:21;;;;;;;30.38;4.95;;;;;;;36.29;20.55;98712.94;5093270;28;20056;-46
2023/06/28 06:56:46;;;;;;;21.35;3.92;;;;;;;36.86;20.42;98718.25;5093170;28;20031;-46
2023/06/28 06:59:12;;;;;;;27.50;3.80;;;;;;;37.38;19.80;98724.63;5091901;28;20028;-46
2023/06/28 07:01:38;;;;;;;44.75;4.90;;;;;;;37.73;19.30;98726.84;5091812;28;20040;-46
2023/06/28 07:04:03;;;;;;;14.60;3.50;;;;;;;37.96;19.20;98721.09;5093152;28;20027;-46
2023/06/28 07:06:29;;;;;;;37.97;4.43;;;;;;;38.04;19.53;98729.38;5093012;28;20020;-46
2023/06/28 07:08:57;;;;;;;17.55;2.67;;;;;;;38.41;18.89;98725.63;5093054;28;20497;-46
2023/06/28 07:11:23;;;;;;;12.07;3.28;;;;;;;38.23;18.13;98722.81;5091643;28;20027;-45
2023/06/28 07:13:48;;;;;;;31.05;5.80;;;;;;;37.82;18.86;98731.22;5091581;28;20025;-46
2023/06/28 07:16:14;;;;;;;17.20;3.05;;;;;;;37.31;19.47;98735.53;5091551;28;20027;-46
2023/06/28 07:18:40;;;;;;;21.45;4.18;;;;;;;37.40;19.12;98730.50;5091569;28;20020;-46
2023/06/28 07:21:05;;;;;;;35.47;4.05;;;;;;;36.86;19.40;98740.16;5091465;28;20056;-46
2023/06/28 07:23:31;;;;;;;61.97;7.28;;;;;;;36.68;20.04;98738.00;5091421;28;20023;-46
2023/06/28 07:25:57;;;;;;;52.78;5.25;;;;;;;36.90;19.97;98735.50;5091357;28;20036;-46
2023/06/28 07:28:22;;;;;;;7.65;2.15;;;;;;;36.61;19.68;98735.19;5092658;28;20020;-46
2023/06/28 07:30:57;;;;;;;13.80;2.70;;;;;;;36.37;20.09;98741.94;5091109;28;20063;-46
2023/06/28 07:33:23;;;;;;;15.85;2.88;;;;;;;36.33;20.18;98744.63;5092129;28;20390;-46
2023/06/28 07:35:52;;;;;;;21.55;3.15;;;;;;;36.19;20.57;98737.00;5091235;28;20056;-46
2023/06/28 07:38:19;;;;;;;43.47;6.15;;;;;;;35.80;20.79;98736.47;5092499;28;20020;-45
2023/06/28 07:40:46;;;;;;;19.60;3.63;;;;;;;35.71;21.08;98744.13;5091437;28;20020;-45
2023/06/28 07:43:12;;;;;;;24.23;3.38;;;;;;;35.83;20.97;98741.19;5092443;28;20393;-45
2023/06/28 07:45:39;;;;;;;21.00;3.03;;;;;;;36.05;20.80;98739.53;5091029;28;20481;-46
2023/06/28 07:48:05;;;;;;;23.88;4.03;;;;;;;36.19;20.70;98733.50;5092358;28;20035;-46
2023/06/28 07:50:30;;;;;;;21.42;3.45;;;;;;;36.38;20.69;98729.81;5090998;28;20393;-46
2023/06/28 07:52:56;;;;;;;16.92;3.47;;;;;;;36.96;19.92;98728.53;5090998;28;20028;-46
2023/06/28 07:55:22;;;;;;;27.48;3.97;;;;;;;37.89;19.41;98731.22;5090878;28;20134;-46
2023/06/28 07:57:47;;;;;;;27.70;4.13;;;;;;;38.32;19.26;98732.25;5092148;28;20035;-46
2023/06/28 08:00:14;;;;;;;6.13;2.30;;;;;;;38.46;18.52;98733.50;5092213;28;20035;-46
2023/06/28 08:02:39;;;;;;;15.38;3.35;;;;;;;38.73;18.36;98743.00;5090840;28;20024;-46
2023/06/28 08:05:07;;;;;;;14.70;2.80;;;;;;;38.89;17.61;98739.13;5092034;28;20056;-46
2023/06/28 08:07:34;;;;;;;12.23;2.45;;;;;;;39.43;17.63;98726.25;5092108;28;20027;-46
2023/06/28 08:10:00;;;;;;;15.10;2.80;;;;;;;39.64;16.96;98730.91;5092107;28;20016;-46
2023/06/28 08:12:26;;;;;;;10.93;2.38;;;;;;;39.73;17.29;98725.81;5092044;28;20525;-46
2023/06/28 08:14:51;;;;;;;15.73;2.30;;;;;;;40.12;16.84;98733.19;5091882;28;20512;-46
2023/06/28 08:17:17;;;;;;;10.80;2.30;;;;;;;40.41;16.22;98730.34;5090633;28;20043;-46
2023/06/28 08:19:43;;;;;;;15.52;2.85;;;;;;;40.42;16.32;98722.88;5091988;28;20023;-46
2023/06/28 08:22:08;;;;;;;18.33;2.47;;;;;;;40.71;16.24;98727.03;5090590;28;20420;-46
2023/06/28 08:24:34;;;;;;;26.17;5.10;;;;;;;40.75;16.04;98724.31;5091875;28;20492;-46
2023/06/28 08:27:00;;;;;;;16.48;3.17;;;;;;;40.74;16.18;98728.22;5091862;28;20074;-46
2023/06/28 08:29:27;;;;;;;8.98;2.70;;;;;;;40.84;16.31;98719.13;5090470;28;20106;-46
2023/06/28 08:31:52;;;;;;;9.73;2.53;;;;;;;40.75;16.20;98718.00;5091510;28;20044;-46
2023/06/28 08:34:18;;;;;;;15.15;2.92;;;;;;;40.77;16.52;98721.94;5090418;28;20024;-46
2023/06/28 08:36:44;;;;;;;11.38;2.30;;;;;;;41.17;16.06;98716.91;5091731;28;20024;-46
2023/06/28 08:39:09;;;;;;;8.05;2.42;;;;;;;41.42;16.13;98721.44;5090464;28;20050;-46
2023/06/28 08:41:36;;;;;;;16.60;3.05;;;;;;;41.70;15.31;98718.44;5090419;28;20176;-46
2023/06/28 08:44:06;;;;;;;17.75;3.20;;;;;;;41.96;15.39;98707.91;5090414;28;20035;-47
2023/06/28 08:46:31;;;;;;;13.48;2.85;;;;;;;42.19;14.84;98712.78;5094093;28;20091;-47
2023/06/28 08:48:59;;;;;;;22.70;3.88;;;;;;;42.10;14.69;98712.50;5094570;28;20157;-46
2023/06/28 08:51:25;;;;;;;14.18;2.30;;;;;;;41.74;14.75;98714.84;5094385;28;20032;-47
2023/06/28 08:53:51;;;;;;;5.65;1.95;;;;;;;41.60;15.33;98715.78;5094316;28;20378;-47
2023/06/28 08:56:17;;;;;;;14.07;2.80;;;;;;;41.46;15.31;98717.47;5077419;28;20032;-46
2023/06/28 08:58:47;;;;;;;11.95;2.30;;;;;;;41.77;15.26;98712.06;5095561;28;20089;-46
2023/06/28 09:01:12;;;;;;;9.30;2.15;;;;;;;41.59;14.96;98711.44;5095527;28;20474;-46
2023/06/28 09:03:43;;;;;;;16.05;2.33;;;;;;;41.55;15.17;98705.19;5095479;28;20047;-47
2023/06/28 09:06:09;;;;;;;11.32;2.60;;;;;;;41.89;14.63;98714.28;5094106;28;20035;-46
2023/06/28 09:08:35;;;;;;;11.77;2.35;;;;;;;41.78;14.73;98708.13;5095380;28;20020;-47
2023/06/28 09:11:02;;;;;;;9.68;2.28;;;;;;;41.25;14.95;98710.19;5095335;28;20509;-46
2023/06/28 09:13:28;;;;;;;16.58;3.10;;;;;;;41.20;15.31;98704.34;5094014;28;20032;-46
2023/06/28 09:15:55;;;;;;;19.17;2.85;;;;;;;41.49;15.05;98704.84;5095201;28;20020;-46
2023/06/28 09:18:21;;;;;;;11.98;2.65;;;;;;;41.59;14.98;98700.41;5093831;28;20393;-46
2023/06/28 09:20:52;;;;;;;10.88;2.20;;;;;;;41.81;15.03;98701.75;5095184;28;20020;-47
2023/06/28 09:23:25;;;;;;;14.65;2.40;;;;;;;42.01;14.77;98703.91;5093788;28;20024;-46
2023/06/28 09:25:51;;;;;;;14.80;2.00;;;;;;;41.36;14.94;98695.53;5095091;28;20170;-46
2023/06/28 09:28:17;;;;;;;15.68;2.72;;;;;;;40.90;15.35;98692.72;5095253;28;20127;-46
2023/06/28 09:30:43;;;;;;;10.77;2.40;;;;;;;41.20;14.93;98683.06;5094620;28;20109;-46
2023/06/28 09:33:09;;;;;;;15.88;2.67;;;;;;;41.45;15.19;98684.81;5094987;28;20435;-46
2023/06/28 09:35:38;;;;;;;22.88;4.03;;;;;;;41.51;15.06;98681.22;5094743;28;20032;-46
2023/06/28 09:38:08;;;;;;;22.80;3.92;;;;;;;41.09;15.28;98677.66;5093505;28;20031;-47
2023/06/28 09:40:34;;;;;;;21.42;2.67;;;;;;;40.67;15.38;98685.00;5094608;28;20028;-46
2023/06/28 09:43:00;;;;;;;26.75;3.75;;;;;;;40.62;16.01;98684.66;5076595;28;20020;-46
2023/06/28 09:45:27;;;;;;;12.82;2.97;;;;;;;40.70;15.61;98683.41;5094610;28;20036;-46
2023/06/28 09:48:00;;;;;;;8.13;2.33;;;;;;;40.47;15.85;98687.50;5094533;28;20497;-46
2023/06/28 09:50:36;;;;;;;;;;;;;;;40.32;16.12;98678.53;5093677;28;20047;-46
2023/06/28 09:53:06;;;;;;;16.05;2.92;;;;;;;40.06;16.03;98682.53;5094534;28;19915;-47
2023/06/28 09:55:31;;;;;;;24.73;3.17;;;;;;;40.04;16.19;98684.91;5076203;28;20393;-47
2023/06/28 09:57:58;;;;;;;24.02;3.78;;;;;;;40.11;16.34;98675.88;5092822;28;20035;-46
2023/06/28 10:00:25;;;;;;;14.77;2.65;;;;;;;40.30;16.13;98680.06;5093032;28;20077;-46
2023/06/28 10:02:52;;;;;;;10.63;2.80;;;;;;;40.31;16.28;98676.19;5094365;28;20035;-47
2023/06/28 10:05:18;;;;;;;25.13;3.58;;;;;;;40.26;16.07;98674.59;5094256;28;20016;-46
2023/06/28 10:07:46;;;;;;;12.65;2.30;;;;;;;40.36;16.00;98672.22;5059446;28;20031;-46
2023/06/28 10:10:12;;;;;;;13.40;2.35;;;;;;;40.66;15.62;98666.91;5094183;28;20016;-46
2023/06/28 10:12:38;;;;;;;7.88;2.33;;;;;;;40.70;15.89;98670.44;5092837;28;20520;-46
2023/06/28 10:15:12;;;;;;;9.95;2.30;;;;;;;40.25;15.94;98669.50;5094002;28;20024;-46
2023/06/28 10:17:38;;;;;;;12.35;2.65;;;;;;;40.06;15.71;98662.53;5094090;28;20031;-46
2023/06/28 10:20:06;;;;;;;14.00;2.80;;;;;;;39.84;15.74;98673.56;5092672;28;20026;-47
2023/06/28 10:22:33;;;;;;;7.68;2.30;;;;;;;39.78;16.04;98663.38;5094181;28;20028;-46
2023/06/28 10:25:01;;;;;;;13.90;2.28;;;;;;;39.84;16.27;98670.81;5092576;28;20024;-46
2023/06/28 10:27:27;;;;;;;7.20;2.10;;;;;;;39.98;16.14;98674.72;5093820;28;20031;-46
2023/06/28 10:29:54;;;;;;;11.07;2.30;;;;;;;39.84;15.89;98664.53;5092677;28;20024;-47
2023/06/28 10:32:20;;;;;;;9.00;2.33;;;;;;;39.77;16.22;98668.09;5093577;28;20497;-46
2023/06/28 10:34:50;;;;;;;11.70;2.45;;;;;;;39.43;16.72;98668.56;5092332;28;20031;-46
2023/06/28 10:37:23;;;;;;;16.48;2.53;;;;;;;39.19;16.45;98675.63;5093634;28;20405;-46
2023/06/28 10:39:53;;;;;;;8.85;2.03;;;;;;;39.03;16.80;98664.28;5093691;28;20020;-46
2023/06/28 10:42:20;;;;;;;12.20;2.05;;;;;;;39.17;16.49;98664.25;5075403;28;20513;-46
2023/06/28 10:44:57;;;;;;;33.40;4.18;;;;;;;39.21;16.74;98667.00;5093515;28;20032;-46
2023/06/28 10:47:24;;;;;;;8.20;2.20;;;;;;;38.67;17.11;98667.75;5092168;28;20024;-46
2023/06/28 10:50:10;;;;;;;6.18;1.80;;;;;;;38.07;17.16;98674.59;5093445;28;20020;-46
2023/06/28 10:52:46;;;;;;;7.63;1.65;;;;;;;38.10;17.81;98667.56;5092037;28;20517;-46
2023/06/28 10:55:17;;;;;;;13.82;2.58;;;;;;;38.26;16.95;98670.75;5091876;28;20048;-47
2023/06/28 10:57:42;;;;;;;7.18;2.15;;;;;;;38.68;17.57;98665.78;5091952;28;20043;-46
2023/06/28 11:00:37;;;;;;;6.63;2.20;;;;;;;38.84;17.15;98670.88;5091870;28;20029;-46
2023/06/28 11:03:06;;;;;;;6.60;2.17;;;;;;;38.96;17.49;98673.28;5091854;28;20027;-47
2023/06/28 11:05:38;;;;;;;13.85;3.97;;;;;;;38.95;17.51;98669.72;5091855;28;20563;-46
2023/06/28 11:08:15;;;;;;;17.73;4.45;;;;;;;38.93;16.64;98663.84;5091104;28;20036;-47
2023/06/28 11:10:43;;;;;;;9.48;3.83;;;;;;;39.00;16.68;98665.03;5091769;28;20097;-47
2023/06/28 11:13:13;;;;;;;17.25;5.07;;;;;;;39.01;17.09;98656.44;5091639;28;20081;-46
2023/06/28 11:15:44;;;;;;;14.48;3.00;;;;;;;38.98;17.47;98668.19;5091537;28;20115;-45
2023/06/28 11:18:15;;;;;;;8.27;2.75;;;;;;;38.88;17.15;98668.97;5091562;28;20482;-46
2023/06/28 11:20:56;;;;;;;5.68;2.50;;;;;;;38.85;16.60;98658.75;5091574;28;20036;-46
2023/06/28 11:23:43;;;;;;;28.67;5.13;;;;;;;38.27;17.08;98646.88;5091496;28;20034;-46
2023/06/28 11:26:17;;;;;;;52.50;6.45;;;;;;;37.84;18.33;98660.38;5090903;28;20119;-46